createdAt,value
2023-05-13T00:04:10.486Z,100777.09
2023-05-13T00:09:14.525Z,100785.78
2023-05-13T00:14:17.224Z,100780.59
2023-05-13T00:19:19.897Z,100774.09
2023-05-13T00:24:24.039Z,100781.16
2023-05-13T00:29:26.847Z,100772.97
2023-05-13T00:34:29.571Z,100777.75
2023-05-13T00:45:04.968Z,100784.13
2023-05-13T00:50:09.358Z,100782.75
2023-05-13T00:55:12.744Z,100791.63
2023-05-13T01:00:17.569Z,100798.13
2023-05-13T01:05:39.402Z,100793.97
2023-05-13T01:10:49.632Z,100795.34
2023-05-13T01:15:58.379Z,100791.06
2023-05-13T01:21:02.655Z,100783.94
2023-05-13T01:26:06.874Z,100784.78
2023-05-13T01:31:10.937Z,100783.91
2023-05-13T01:36:14.247Z,100783.91
2023-05-13T01:41:18.651Z,100786.47
2023-05-13T01:46:21.729Z,100794.09
2023-05-13T01:51:24.506Z,100792.34
2023-05-13T01:56:28.607Z,100792.47
2023-05-13T02:01:31.672Z,100784.69
2023-05-13T02:06:34.373Z,100790.94
2023-05-13T02:11:38.687Z,100793.41
2023-05-13T02:16:41.608Z,100797.69
2023-05-13T02:21:44.478Z,100798.28
2023-05-13T02:26:48.648Z,100795.34
2023-05-13T02:31:51.629Z,100796.69
2023-05-13T02:36:54.490Z,100796.19
2023-05-13T02:41:59.829Z,100787.88
2023-05-13T02:47:07.776Z,100778.84
2023-05-13T02:52:10.834Z,100779.69
2023-05-13T02:57:15.321Z,100783.09
2023-05-13T03:02:19.302Z,100783.72
2023-05-13T03:07:22.132Z,100785.78
2023-05-13T03:12:26.279Z,100788.50
2023-05-13T03:17:30.828Z,100791.41
2023-05-13T03:22:34.173Z,100794.34
2023-05-13T03:27:40.560Z,100795.22
2023-05-13T03:32:44.837Z,100797.38
2023-05-13T03:37:48.552Z,100810.59
2023-05-13T03:42:54.035Z,100808.66
2023-05-13T03:47:59.323Z,100805.97
2023-05-13T03:53:03.027Z,100806.38
2023-05-13T03:58:14.228Z,100807.97
2023-05-13T04:03:17.602Z,100812.00
2023-05-13T04:08:20.730Z,100817.72
2023-05-13T04:13:24.967Z,100818.34
2023-05-13T04:18:27.753Z,100810.50
2023-05-13T04:23:30.561Z,100817.38
2023-05-13T04:28:34.730Z,100824.59
2023-05-13T04:33:38.270Z,100823.84
2023-05-13T04:38:41.059Z,100832.16
2023-05-13T04:43:45.362Z,100840.47
2023-05-13T04:48:48.705Z,100839.56
2023-05-13T04:53:52.249Z,100841.00
2023-05-13T04:58:57.774Z,100838.53
2023-05-13T05:04:02.483Z,100845.97
2023-05-13T05:09:06.115Z,100841.50
2023-05-13T05:14:10.396Z,100838.91
2023-05-13T05:19:13.499Z,100853.03
2023-05-13T05:24:16.487Z,100844.41
2023-05-13T05:29:20.726Z,100855.81
2023-05-13T05:34:23.675Z,100849.47
2023-05-13T05:39:26.694Z,100855.75
2023-05-13T05:44:30.868Z,100847.09
2023-05-13T05:49:33.801Z,100854.72
2023-05-13T05:54:36.942Z,100855.09
2023-05-13T05:59:41.222Z,100846.06
2023-05-13T06:04:44.262Z,100848.41
2023-05-13T06:09:47.219Z,100851.56
2023-05-13T06:14:51.632Z,100850.91
2023-05-13T06:19:54.443Z,100852.59
2023-05-13T06:24:57.313Z,100854.03
2023-05-13T06:30:01.626Z,100856.47
2023-05-13T06:35:04.781Z,100858.03
2023-05-13T06:40:09.258Z,100859.47
2023-05-13T06:45:18.474Z,100858.44
2023-05-13T06:50:22.536Z,100855.47
2023-05-13T06:55:25.697Z,100859.06
2023-05-13T07:00:29.960Z,100858.97
2023-05-13T07:05:32.903Z,100862.00
2023-05-13T07:10:36.696Z,100873.97
2023-05-13T07:15:40.967Z,100865.94
2023-05-13T07:20:43.798Z,100868.13
2023-05-13T07:25:46.625Z,100862.88
2023-05-13T07:30:53.329Z,100863.81
2023-05-13T07:35:56.192Z,100858.75
2023-05-13T07:40:59.202Z,100863.28
2023-05-13T07:46:04.051Z,100856.81
2023-05-13T07:51:06.925Z,100852.28
2023-05-13T07:56:09.741Z,100855.38
2023-05-13T08:01:14.024Z,100847.84
2023-05-13T08:06:16.810Z,100845.25
2023-05-13T08:11:19.655Z,100848.94
2023-05-13T08:16:31.095Z,100847.56
2023-05-13T08:21:33.909Z,100844.81
2023-05-13T08:26:36.675Z,100841.69
2023-05-13T08:31:40.898Z,100851.28
2023-05-13T08:36:43.714Z,100847.44
2023-05-13T08:41:47.474Z,100838.69
2023-05-13T08:46:59.634Z,100839.97
2023-05-13T08:52:02.492Z,100834.84
2023-05-13T08:57:06.525Z,100824.09
2023-05-13T09:02:11.523Z,100829.91
2023-05-13T09:07:14.882Z,100832.63
2023-05-13T09:12:53.505Z,100824.16
2023-05-13T09:18:00.965Z,100820.69
2023-05-13T09:23:06.632Z,100829.56
2023-05-13T09:28:09.554Z,100828.88
2023-05-13T09:33:15.052Z,100831.31
2023-05-13T09:38:19.515Z,100823.75
2023-05-13T09:43:23.095Z,100829.06
2023-05-13T09:48:28.667Z,100823.00
2023-05-13T09:53:32.578Z,100816.16
2023-05-13T09:58:36.015Z,100819.28
2023-05-13T10:03:40.506Z,100818.47
2023-05-13T10:08:43.830Z,100815.44
2023-05-13T10:13:51.707Z,100819.13
2023-05-13T10:18:57.321Z,100818.56
2023-05-13T10:24:01.896Z,100817.91
2023-05-13T10:29:05.238Z,100805.22
2023-05-13T10:34:10.331Z,100798.84
2023-05-13T10:39:48.288Z,100800.13
2023-05-13T10:44:55.387Z,100805.47
2023-05-13T10:50:04.533Z,100792.88
2023-05-13T10:55:16.745Z,100800.53
2023-05-13T11:00:20.533Z,100799.69
2023-05-13T11:05:24.944Z,100790.81
2023-05-13T11:10:30.013Z,100791.25
2023-05-13T11:15:45.129Z,100786.81
2023-05-13T11:20:54.444Z,100783.47
2023-05-13T11:26:16.151Z,100764.41
2023-05-13T11:31:19.024Z,100771.50
2023-05-13T11:36:23.240Z,100779.06
2023-05-13T11:41:26.329Z,100768.47
2023-05-13T11:46:29.170Z,100766.53
2023-05-13T11:51:35.369Z,100770.31
2023-05-13T11:56:38.145Z,100762.47
2023-05-13T12:01:40.909Z,100767.25
2023-05-13T12:06:48.200Z,100767.41
2023-05-13T12:11:51.596Z,100764.72
2023-05-13T12:16:54.723Z,100761.50
2023-05-13T12:22:00.466Z,100758.06
2023-05-13T12:27:10.097Z,100761.59
2023-05-13T12:32:17.905Z,100765.69
2023-05-13T12:37:26.043Z,100758.66
2023-05-13T12:42:28.958Z,100761.56
2023-05-13T12:47:31.775Z,100762.94
2023-05-13T12:52:36.454Z,100761.28
2023-05-13T12:57:39.215Z,100760.88
2023-05-13T13:02:42.344Z,100760.94
2023-05-13T13:07:46.617Z,100753.81
2023-05-13T13:12:50.110Z,100755.38
2023-05-13T13:17:52.962Z,100743.56
2023-05-13T13:22:57.069Z,100739.69
2023-05-13T13:27:59.849Z,100744.72
2023-05-13T13:33:02.705Z,100743.94
2023-05-13T13:38:08.247Z,100740.25
2023-05-13T13:43:11.037Z,100740.38
2023-05-13T13:48:14.333Z,100734.16
2023-05-13T13:53:18.531Z,100726.69
2023-05-13T13:58:22.232Z,100729.44
2023-05-13T14:03:25.179Z,100721.44
2023-05-13T14:08:29.437Z,100726.38
2023-05-13T14:13:32.308Z,100719.81
2023-05-13T14:18:35.151Z,100725.59
2023-05-13T14:23:41.851Z,100717.03
2023-05-13T14:28:45.609Z,100710.13
2023-05-13T14:33:48.472Z,100704.69
2023-05-13T14:38:52.608Z,100714.94
2023-05-13T14:43:55.371Z,100710.19
2023-05-13T14:48:58.158Z,100711.44
2023-05-13T14:54:02.400Z,100711.91
2023-05-13T14:59:05.213Z,100715.34
2023-05-13T15:04:07.962Z,100696.63
2023-05-13T15:09:12.226Z,100692.44
2023-05-13T15:14:15.727Z,100686.75
2023-05-13T15:19:19.551Z,100700.72
2023-05-13T15:24:23.814Z,100703.50
2023-05-13T15:29:26.575Z,100688.00
2023-05-13T15:34:29.312Z,100697.88
2023-05-13T15:39:33.481Z,100690.22
2023-05-13T15:44:36.223Z,100679.16
2023-05-13T15:49:39.091Z,100696.47
2023-05-13T15:54:43.222Z,100689.78
2023-05-13T15:59:46.015Z,100685.66
2023-05-13T16:04:48.816Z,100689.81
2023-05-13T16:09:52.945Z,100693.81
2023-05-13T16:14:55.714Z,100681.00
2023-05-13T16:19:59.780Z,100680.81
2023-05-13T16:25:05.677Z,100676.09
2023-05-13T16:30:10.384Z,100678.91
2023-05-13T16:35:13.160Z,100676.25
2023-05-13T16:40:17.501Z,100675.16
2023-05-13T16:45:20.615Z,100676.28
2023-05-13T16:50:24.240Z,100673.53
2023-05-13T16:55:28.572Z,100659.00
2023-05-13T17:00:31.351Z,100656.06
2023-05-13T17:05:36.326Z,100653.25
2023-05-13T17:10:40.674Z,100650.41
2023-05-13T17:15:43.472Z,100653.28
2023-05-13T17:20:46.456Z,100647.50
2023-05-13T17:25:50.942Z,100645.41
2023-05-13T17:30:53.829Z,100645.16
2023-05-13T17:35:56.700Z,100644.59
2023-05-13T17:41:00.811Z,100639.91
2023-05-13T17:46:04.178Z,100644.28
2023-05-13T17:51:06.986Z,100648.06
2023-05-13T17:56:11.352Z,100650.94
2023-05-13T18:01:14.215Z,100658.63
2023-05-13T18:06:17.301Z,100661.91
2023-05-13T18:11:22.094Z,100666.16
2023-05-13T18:16:24.935Z,100668.00
2023-05-13T18:21:28.895Z,100667.34
2023-05-13T18:26:33.035Z,100667.81
2023-05-13T18:31:35.925Z,100674.84
2023-05-13T18:36:38.702Z,100680.44
2023-05-13T18:41:43.148Z,100682.00
2023-05-13T18:46:45.900Z,100684.91
2023-05-13T18:51:48.686Z,100679.72
2023-05-13T18:56:52.797Z,100685.16
2023-05-13T19:01:55.655Z,100695.47
2023-05-13T19:06:58.545Z,100696.06
2023-05-13T19:12:02.702Z,100699.53
2023-05-13T19:17:05.817Z,100699.91
2023-05-13T19:22:08.754Z,100717.28
2023-05-13T19:27:12.992Z,100711.84
2023-05-13T19:32:16.638Z,100711.03
2023-05-13T19:37:19.604Z,100704.66
2023-05-13T19:42:23.709Z,100716.75
2023-05-13T19:47:27.651Z,100713.50
2023-05-13T19:52:30.801Z,100719.28
2023-05-13T19:57:35.072Z,100720.66
2023-05-13T20:02:38.015Z,100720.63
2023-05-13T20:07:40.862Z,100724.84
2023-05-13T20:12:45.705Z,100721.81
2023-05-13T20:17:48.702Z,100720.75
2023-05-13T20:22:51.516Z,100711.69
2023-05-13T20:27:55.600Z,100715.56
2023-05-13T20:32:58.369Z,100706.16
2023-05-13T20:38:01.973Z,100709.81
2023-05-13T20:43:07.771Z,100722.41
2023-05-13T20:48:10.949Z,100724.50
2023-05-13T20:53:14.309Z,100733.19
2023-05-13T20:58:18.338Z,100732.53
2023-05-13T21:03:21.175Z,100730.47
2023-05-13T21:08:23.883Z,100727.81
2023-05-13T21:13:28.053Z,100735.88
2023-05-13T21:18:31.584Z,100742.94
2023-05-13T21:23:35.542Z,100740.91
2023-05-13T21:28:39.800Z,100735.94
2023-05-13T21:33:42.582Z,100731.00
2023-05-13T21:38:45.312Z,100731.25
2023-05-13T21:43:49.392Z,100730.47
2023-05-13T21:48:52.157Z,100730.34
2023-05-13T21:53:55.076Z,100731.63
2023-05-13T21:58:59.169Z,100741.59
2023-05-13T22:04:01.888Z,100733.25
2023-05-13T22:09:04.767Z,100734.81
2023-05-13T22:14:08.887Z,100735.38
2023-05-13T22:19:11.691Z,100740.53
2023-05-13T22:24:14.510Z,100729.28
2023-05-13T22:29:18.654Z,100737.47
2023-05-13T22:34:21.641Z,100735.19
2023-05-13T22:39:24.473Z,100736.72
2023-05-13T22:44:28.595Z,100737.34
2023-05-13T22:49:31.336Z,100736.91
2023-05-13T22:54:34.029Z,100745.13
2023-05-13T22:59:38.072Z,100743.16
2023-05-13T23:04:41.181Z,100735.44
2023-05-13T23:09:43.868Z,100743.28
2023-05-13T23:14:47.921Z,100742.16
2023-05-13T23:19:50.633Z,100735.84
2023-05-13T23:24:53.329Z,100747.66
2023-05-13T23:29:57.354Z,100744.66
2023-05-13T23:35:00.043Z,100745.22
2023-05-13T23:40:02.820Z,100731.84
2023-05-13T23:45:08.148Z,100738.22
2023-05-13T23:50:11.872Z,100729.94
2023-05-13T23:55:14.807Z,100718.66
